Time;durP1;ratioP1;P1;durP2;ratioP2;P2;SDS_P1;SDS_P2;PMS_P1;PMS_P2;Temp;Humidity;BMP_temperature;BMP_pressure;BME280_temperature;BME280_humidity;BME280_pressure;Samples;Min_cycle;Max_cycle;Signal;HPM_P1;HPM_P2
2021/04/01 00:02:28;;;;;;;68.30;48.65;;;16.10;60.80;;;;;;5097195;28;20097;-70
2021/04/01 00:04:55;;;;;;;71.25;49.92;;;16.10;61.00;;;;;;5079246;28;20031;-72
2021/04/01 00:07:21;;;;;;;68.90;49.67;;;16.00;60.60;;;;;;5096889;28;20040;-71
2021/04/01 00:09:48;;;;;;;72.60;51.30;;;16.00;61.00;;;;;;5097504;28;20051;-71
2021/04/01 00:12:14;;;;;;;70.70;49.50;;;16.00;61.00;;;;;;5097405;28;20359;-71
2021/04/01 00:14:41;;;;;;;67.07;48.70;;;16.00;61.10;;;;;;5097553;28;20044;-71
2021/04/01 00:17:08;;;;;;;72.22;51.50;;;16.00;61.20;;;;;;5097370;28;20109;-72
2021/04/01 00:19:35;;;;;;;72.53;52.25;;;16.00;61.10;;;;;;5096974;28;20040;-71
2021/04/01 00:22:00;;;;;;;76.57;51.92;;;16.00;61.20;;;;;;5078705;28;20335;-71
2021/04/01 00:24:26;;;;;;;71.78;51.58;;;15.90;61.20;;;;;;5096634;28;20036;-71
2021/04/01 00:26:52;;;;;;;69.80;51.63;;;15.90;61.20;;;;;;5096918;28;20059;-71
2021/04/01 00:29:19;;;;;;;71.60;50.92;;;16.00;61.30;;;;;;5096558;28;20435;-71
2021/04/01 00:31:46;;;;;;;70.28;51.95;;;15.90;61.30;;;;;;5096578;28;20040;-71
2021/04/01 00:34:11;;;;;;;73.93;51.88;;;15.90;61.40;;;;;;5096095;28;20043;-70
2021/04/01 00:36:37;;;;;;;77.38;53.67;;;15.90;61.50;;;;;;5096424;28;20380;-70
2021/04/01 00:39:04;;;;;;;74.13;53.08;;;15.90;61.50;;;;;;5096563;28;20047;-71
2021/04/01 00:41:29;;;;;;;72.25;53.15;;;16.00;61.70;;;;;;5096679;28;20051;-70
2021/04/01 00:43:55;;;;;;;75.20;53.72;;;15.90;61.70;;;;;;5078150;28;20047;-71
2021/04/01 00:46:21;;;;;;;79.78;55.63;;;15.90;61.70;;;;;;5096268;28;20063;-71
2021/04/01 00:48:47;;;;;;;79.97;54.65;;;15.90;61.60;;;;;;5096328;28;20068;-70
2021/04/01 00:51:13;;;;;;;78.18;54.83;;;15.90;61.60;;;;;;5096923;28;20059;-71
2021/04/01 00:53:38;;;;;;;77.38;54.38;;;15.90;61.70;;;;;;5096282;28;20409;-71
2021/04/01 00:56:05;;;;;;;80.88;56.72;;;15.90;61.70;;;;;;5096604;28;20044;-71
2021/04/01 00:58:31;;;;;;;81.97;57.10;;;15.80;61.60;;;;;;5096137;28;20048;-70
2021/04/01 01:01:45;;;;;;;80.65;56.28;;;15.80;61.70;;;;;;5096332;28;20047;-71
2021/04/01 01:03:46;;;;;;;83.10;55.30;;;15.80;61.60;;;;;;5085153;28;20109;-71
2021/04/01 01:06:12;;;;;;;85.57;58.15;;;15.80;61.80;;;;;;5096834;28;20044;-70
2021/04/01 01:08:38;;;;;;;80.85;55.50;;;15.80;61.80;;;;;;5096614;28;20039;-71
2021/04/01 01:11:04;;;;;;;83.45;57.00;;;15.80;61.80;;;;;;5096635;28;20124;-71
2021/04/01 01:13:31;;;;;;;83.13;56.00;;;15.80;61.60;;;;;;5095999;28;20050;-71
2021/04/01 01:15:57;;;;;;;84.18;56.00;;;15.80;61.60;;;;;;5096351;28;20119;-71
2021/04/01 01:18:25;;;;;;;85.10;56.63;;;15.80;61.60;;;;;;5096207;28;20115;-71
2021/04/01 01:20:52;;;;;;;79.22;54.00;;;15.80;61.40;;;;;;5096576;28;20043;-70
2021/04/01 01:23:18;;;;;;;84.90;56.05;;;15.70;61.30;;;;;;5095885;28;20050;-71
2021/04/01 01:25:45;;;;;;;85.43;56.83;;;15.70;61.20;;;;;;5095483;28;20069;-71
2021/04/01 01:28:11;;;;;;;85.20;55.90;;;15.70;61.20;;;;;;5095197;28;20046;-71
2021/04/01 01:30:37;;;;;;;83.55;56.55;;;15.70;61.30;;;;;;5095985;28;20039;-71
2021/04/01 01:33:08;;;;;;;80.97;54.92;;;15.70;61.50;;;;;;5095926;28;20051;-71
2021/04/01 01:35:36;;;;;;;81.47;54.83;;;15.70;61.60;;;;;;5095471;28;20063;-70
2021/04/01 01:38:05;;;;;;;85.68;55.65;;;15.60;61.50;;;;;;5095248;28;20028;-71
2021/04/01 01:40:35;;;;;;;84.47;55.88;;;15.60;61.50;;;;;;5095574;28;20036;-71
2021/04/01 01:43:03;;;;;;;83.25;55.92;;;15.60;61.50;;;;;;5095188;28;20423;-71
2021/04/01 01:45:30;;;;;;;83.50;55.80;;;15.50;61.70;;;;;;5094967;28;20031;-70
2021/04/01 01:47:57;;;;;;;86.28;55.25;;;15.50;61.60;;;;;;5096190;28;20090;-71
2021/04/01 01:50:29;;;;;;;80.70;52.60;;;15.40;61.60;;;;;;5095391;28;20119;-71
2021/04/01 01:52:55;;;;;;;83.97;55.05;;;15.50;61.70;;;;;;5095026;28;20111;-71
2021/04/01 01:55:21;;;;;;;85.85;55.90;;;15.50;61.50;;;;;;5096000;28;20036;-71
2021/04/01 01:57:47;;;;;;;82.15;54.30;;;15.50;61.60;;;;;;5095793;28;20036;-70
2021/04/01 02:00:20;;;;;;;88.55;56.40;;;15.50;61.50;;;;;;5095614;28;20039;-71
2021/04/01 02:02:54;;;;;;;78.68;55.25;;;15.50;61.50;;;;;;5094638;28;20036;-71
2021/04/01 02:05:25;;;;;;;81.70;53.55;;;15.50;61.60;;;;;;5095798;28;20060;-71
2021/04/01 02:07:51;;;;;;;84.95;54.78;;;15.50;61.50;;;;;;5094998;28;20036;-71
2021/04/01 02:10:26;;;;;;;82.93;54.85;;;15.40;61.60;;;;;;5094863;28;20032;-70
2021/04/01 02:12:53;;;;;;;80.65;54.30;;;15.30;61.50;;;;;;5094868;28;20119;-72
2021/04/01 02:15:24;;;;;;;80.65;53.97;;;15.30;61.60;;;;;;5095415;28;20043;-70
2021/04/01 02:17:50;;;;;;;82.57;55.22;;;15.30;61.60;;;;;;5095513;28;20043;-70
2021/04/01 02:20:16;;;;;;;83.00;53.78;;;15.30;61.60;;;;;;5095181;28;20112;-70
2021/04/01 02:22:42;;;;;;;78.30;51.25;;;15.30;62.20;;;;;;5094891;28;20119;-71
2021/04/01 02:25:08;;;;;;;82.38;53.40;;;15.30;61.60;;;;;;5095223;28;20499;-71
2021/04/01 02:27:34;;;;;;;79.80;53.10;;;15.30;61.60;;;;;;5095173;28;20036;-71
2021/04/01 02:30:01;;;;;;;79.43;53.55;;;15.20;61.60;;;;;;5094956;28;20374;-71
2021/04/01 02:32:27;;;;;;;81.75;54.10;;;15.20;61.60;;;;;;5094512;28;20040;-71
2021/04/01 02:34:52;;;;;;;77.57;51.25;;;15.20;61.70;;;;;;5095230;28;20111;-71
2021/04/01 02:37:18;;;;;;;80.18;53.30;;;15.10;61.60;;;;;;5095247;28;20093;-71
2021/04/01 02:39:47;;;;;;;79.78;52.47;;;15.10;61.80;;;;;;5095248;28;20045;-70
2021/04/01 02:42:13;;;;;;;81.15;52.53;;;15.10;61.80;;;;;;5094766;28;20066;-71
2021/04/01 02:44:39;;;;;;;76.13;50.85;;;15.10;61.80;;;;;;5076782;28;20127;-71
2021/04/01 02:47:05;;;;;;;73.72;49.80;;;15.10;61.80;;;;;;5094549;28;20332;-70
2021/04/01 02:49:31;;;;;;;72.85;50.80;;;15.00;61.80;;;;;;5095244;28;20058;-71
2021/04/01 02:51:57;;;;;;;82.38;53.72;;;15.00;61.90;;;;;;5076668;28;20482;-70
2021/04/01 02:54:23;;;;;;;76.47;51.00;;;14.90;61.90;;;;;;5094956;28;20115;-71
2021/04/01 02:56:49;;;;;;;78.60;52.47;;;15.00;62.00;;;;;;5094867;28;20040;-71
2021/04/01 02:59:15;;;;;;;75.55;49.88;;;15.00;62.10;;;;;;5094387;28;20416;-70
2021/04/01 03:01:41;;;;;;;81.88;52.15;;;15.00;62.10;;;;;;5094248;28;20059;-71
2021/04/01 03:04:09;;;;;;;74.88;51.00;;;15.00;62.00;;;;;;5094701;28;20036;-71
2021/04/01 03:06:36;;;;;;;75.93;50.90;;;15.00;61.90;;;;;;5095313;28;20064;-71
2021/04/01 03:09:03;;;;;;;73.57;50.53;;;15.00;61.90;;;;;;5094902;28;20115;-71
2021/04/01 03:11:28;;;;;;;68.65;47.42;;;15.00;62.00;;;;;;5094413;28;20396;-70
2021/04/01 03:13:54;;;;;;;69.47;48.17;;;14.90;61.80;;;;;;5095280;28;20079;-70
2021/04/01 03:16:20;;;;;;;73.45;49.45;;;14.90;62.00;;;;;;5095035;28;20348;-71
2021/04/01 03:18:46;;;;;;;72.60;48.25;;;14.90;62.20;;;;;;5094919;28;20457;-71
2021/04/01 03:21:12;;;;;;;74.43;49.30;;;14.90;62.30;;;;;;5094219;28;20032;-70
2021/04/01 03:23:38;;;;;;;74.00;50.33;;;14.90;62.30;;;;;;5098206;28;20421;-71
2021/04/01 03:26:03;;;;;;;74.72;50.05;;;14.90;62.50;;;;;;5097649;28;20048;-71
2021/04/01 03:28:29;;;;;;;72.20;48.88;;;14.90;62.10;;;;;;5098302;28;20096;-71
2021/04/01 03:31:01;;;;;;;73.00;50.20;;;14.80;62.20;;;;;;5097938;28;20423;-70
2021/04/01 03:33:32;;;;;;;73.75;50.03;;;14.90;62.30;;;;;;5098617;28;20496;-71
2021/04/01 03:35:59;;;;;;;72.50;50.15;;;14.90;61.70;;;;;;5098051;28;20415;-70
2021/04/01 03:38:26;;;;;;;73.85;51.78;;;14.90;62.20;;;;;;5098082;28;20040;-71
2021/04/01 03:40:54;;;;;;;76.07;51.30;;;14.90;61.90;;;;;;5097692;28;20084;-72
2021/04/01 03:43:25;;;;;;;74.70;50.40;;;14.90;62.50;;;;;;5094537;28;20455;-71
2021/04/01 03:45:52;;;;;;;72.00;51.30;;;14.80;62.00;;;;;;5097364;28;20122;-71
2021/04/01 03:48:18;;;;;;;71.53;51.90;;;14.80;62.20;;;;;;5097521;28;20426;-71
2021/04/01 03:50:44;;;;;;;71.30;50.58;;;14.90;62.60;;;;;;5097506;28;20059;-71
2021/04/01 03:53:11;;;;;;;73.50;52.03;;;14.90;62.80;;;;;;5098420;28;20044;-71
2021/04/01 03:55:39;;;;;;;72.50;52.25;;;14.90;62.60;;;;;;5098538;28;20040;-71
2021/04/01 04:16:17;;;;;;;72.80;50.03;;;14.60;62.40;;;;;;5097090;28;20048;-70
2021/04/01 04:18:43;;;;;;;70.03;49.85;;;14.60;62.70;;;;;;5096659;28;20109;-70
2021/04/01 04:21:09;;;;;;;68.88;48.75;;;14.60;62.50;;;;;;5097441;28;20119;-71
2021/04/01 04:23:41;;;;;;;70.18;50.10;;;14.60;62.60;;;;;;5096768;28;20115;-70
2021/04/01 04:26:07;;;;;;;66.10;47.28;;;14.70;62.90;;;;;;5097075;28;20123;-70
2021/04/01 04:28:34;;;;;;;62.58;44.83;;;14.70;62.70;;;;;;5096708;28;20119;-70
2021/04/01 04:31:01;;;;;;;59.85;42.85;;;14.70;62.40;;;;;;5097119;28;20051;-70
2021/04/01 04:33:28;;;;;;;57.22;39.40;;;14.70;62.60;;;;;;5096781;28;20043;-71
2021/04/01 04:35:54;;;;;;;55.22;37.97;;;14.70;62.40;;;;;;5096255;28;20040;-71
2021/04/01 04:38:20;;;;;;;51.40;35.95;;;14.70;62.60;;;;;;5096864;28;20040;-71
2021/04/01 04:40:46;;;;;;;48.10;33.72;;;14.70;62.50;;;;;;5078766;28;20074;-70
2021/04/01 04:43:13;;;;;;;42.83;30.08;;;14.70;62.60;;;;;;5096706;28;20093;-71
2021/04/01 04:45:39;;;;;;;42.22;27.63;;;14.60;62.30;;;;;;5095913;28;20056;-72
2021/04/01 04:48:05;;;;;;;41.08;25.90;;;14.60;62.20;;;;;;5096102;28;20054;-71
2021/04/01 04:50:31;;;;;;;36.83;23.63;;;14.60;62.30;;;;;;5097079;28;20123;-71
2021/04/01 04:52:56;;;;;;;30.83;21.77;;;14.50;62.10;;;;;;5096511;28;20115;-71
2021/04/01 04:55:24;;;;;;;34.92;22.45;;;14.50;62.20;;;;;;5095923;28;20047;-71
2021/04/01 04:58:12;;;;;;;32.78;19.80;;;14.50;62.60;;;;;;5095917;28;20032;-71
2021/04/01 05:00:46;;;;;;;34.67;21.25;;;14.50;62.30;;;;;;5096245;28;20043;-72
2021/04/01 05:05:57;;;;;;;32.72;19.00;;;14.70;61.90;;;;;;5075524;28;20111;-72
2021/04/01 05:08:23;;;;;;;29.33;17.98;;;14.70;61.90;;;;;;5076166;28;20144;-73
2021/04/01 05:10:51;;;;;;;34.03;18.35;;;14.80;62.80;;;;;;5076046;28;20044;-70
2021/04/01 05:13:17;;;;;;;30.05;17.17;;;14.90;63.30;;;;;;5076140;28;20097;-70
2021/04/01 05:15:50;;;;;;;30.60;15.65;;;15.00;62.80;;;;;;5094973;28;20036;-70
2021/04/01 05:18:23;;;;;;;25.17;14.13;;;15.30;62.50;;;;;;5096194;28;20055;-70
2021/04/01 05:20:51;;;;;;;26.38;11.27;;;15.40;63.10;;;;;;5096230;28;20123;-71
2021/04/01 05:25:51;;;;;;;24.45;8.73;;;15.80;61.80;;;;;;5095801;28;20044;-73
2021/04/01 05:30:45;;;;;;;25.52;7.38;;;16.10;61.30;;;;;;5096180;28;20115;-70
2021/04/01 05:33:13;;;;;;;15.85;6.25;;;16.20;61.10;;;;;;5096151;28;20119;-70
2021/04/01 05:35:40;;;;;;;21.90;5.30;;;16.30;61.00;;;;;;5095150;28;20055;-73
2021/04/01 05:38:06;;;;;;;18.65;5.28;;;16.40;60.90;;;;;;5095991;28;20373;-72
2021/04/01 05:40:32;;;;;;;18.63;6.00;;;16.50;60.80;;;;;;5095983;28;20050;-72
2021/04/01 05:43:01;;;;;;;16.85;5.40;;;16.60;60.80;;;;;;5096327;28;20074;-75
2021/04/01 05:45:37;;;;;;;18.33;5.60;;;16.70;61.30;;;;;;5089643;28;20036;-69
2021/04/01 05:48:05;;;;;;;24.80;5.05;;;16.90;61.40;;;;;;5105237;28;20044;-67
2021/04/01 05:56:45;;;;;;;17.88;4.68;;;17.30;61.80;;;;;;5093646;28;20036;-70
2021/04/01 06:04:37;;;;;;;12.75;3.60;;;17.60;61.80;;;;;;5095355;28;20043;-70
2021/04/01 06:07:15;;;;;;;17.45;3.97;;;17.70;61.90;;;;;;5091723;28;20124;-77
2021/04/01 06:09:49;;;;;;;17.35;3.33;;;17.70;61.80;;;;;;5077065;28;20107;-70
2021/04/01 06:12:15;;;;;;;14.77;3.03;;;17.80;61.80;;;;;;5093602;28;20100;-70
2021/04/01 06:15:10;;;;;;;12.32;3.38;;;17.80;61.90;;;;;;5076501;28;20035;-70
2021/04/01 06:17:48;;;;;;;13.07;3.50;;;17.90;62.10;;;;;;5082431;28;20039;-70
2021/04/01 06:20:15;;;;;;;16.00;3.35;;;17.90;62.10;;;;;;5079209;28;20060;-71
2021/04/01 06:22:42;;;;;;;15.98;3.22;;;17.90;61.90;;;;;;5078434;28;20098;-72
2021/04/01 06:25:15;;;;;;;20.98;3.63;;;17.90;61.80;;;;;;5088971;28;20115;-70
2021/04/01 06:27:53;;;;;;;14.18;2.95;;;17.90;61.90;;;;;;5081959;28;20036;-70
2021/04/01 06:30:27;;;;;;;19.95;3.10;;;17.90;62.10;;;;;;5085546;28;21059;-71
2021/04/01 06:33:03;;;;;;;16.00;3.35;;;17.70;61.40;;;;;;5094470;28;20471;-70
2021/04/01 06:40:49;;;;;;;24.45;3.72;;;17.60;62.10;;;;;;5085604;28;20053;-73
2021/04/01 06:43:19;;;;;;;21.55;3.45;;;17.70;61.70;;;;;;5076839;28;20063;-74
2021/04/01 06:45:51;;;;;;;34.92;4.15;;;17.70;61.40;;;;;;5078032;28;20189;-74
2021/04/01 06:48:22;;;;;;;19.27;3.20;;;17.70;61.20;;;;;;5094479;28;20036;-74
2021/04/01 06:50:50;;;;;;;15.35;3.92;;;17.80;61.30;;;;;;5093819;28;20119;-81
2021/04/01 06:53:29;;;;;;;16.58;3.25;;;17.90;61.20;;;;;;5084085;28;20027;-83
2021/04/01 06:59:18;;;;;;;15.05;3.40;;;17.90;60.90;;;;;;5097335;28;20058;-78
2021/04/01 07:01:51;;;;;;;14.35;2.95;;;17.90;60.10;;;;;;5093945;28;20076;-71
2021/04/01 07:04:21;;;;;;;19.58;3.65;;;17.90;60.30;;;;;;5098879;28;20040;-71
2021/04/01 07:06:53;;;;;;;14.00;2.63;;;17.90;59.90;;;;;;5080932;28;20370;-71
2021/04/01 07:12:17;;;;;;;15.07;2.78;;;17.90;58.60;;;;;;5092581;28;20063;-71
2021/04/01 07:14:47;;;;;;;13.60;3.20;;;18.00;58.20;;;;;;5095704;28;20036;-70
2021/04/01 07:17:28;;;;;;;14.35;3.20;;;17.90;58.00;;;;;;5096548;28;21295;-69
2021/04/01 07:50:22;;;;;;;11.40;2.78;;;18.30;55.80;;;;;;5099824;28;20032;-72
2021/04/01 07:52:55;;;;;;;10.05;2.05;;;18.30;56.50;;;;;;5094866;28;20120;-77
2021/04/01 08:06:19;;;;;;;14.35;3.20;;;18.40;57.90;;;;;;5093682;28;20043;-76
2021/04/01 08:08:46;;;;;;;13.65;3.00;;;18.40;59.30;;;;;;5096250;28;20453;-76
2021/04/01 08:11:17;;;;;;;16.80;3.70;;;18.40;58.90;;;;;;5095728;28;20181;-76
2021/04/01 08:13:50;;;;;;;14.95;3.22;;;18.40;59.20;;;;;;5087130;28;20111;-76
2021/04/01 08:16:20;;;;;;;20.35;3.50;;;18.40;59.70;;;;;;5088131;28;20354;-76
2021/04/01 08:18:51;;;;;;;14.48;3.17;;;18.30;59.70;;;;;;5086919;28;20056;-76
2021/04/01 08:21:17;;;;;;;15.10;3.05;;;18.30;60.00;;;;;;5087423;28;20065;-75
2021/04/01 08:23:54;;;;;;;15.07;3.22;;;18.30;60.30;;;;;;5102537;28;20043;-75
2021/04/01 08:26:37;;;;;;;10.25;2.90;;;18.20;60.60;;;;;;5080817;28;20111;-76
2021/04/01 08:34:41;;;;;;;13.82;2.80;;;18.10;61.30;;;;;;5094794;28;20427;-75
2021/04/01 08:37:09;;;;;;;18.20;3.25;;;18.00;60.80;;;;;;5094944;28;20036;-75
2021/04/01 08:39:37;;;;;;;12.65;3.40;;;18.00;61.00;;;;;;5097224;28;20044;-75
2021/04/01 08:42:06;;;;;;;12.68;3.50;;;17.80;59.20;;;;;;5094802;28;20447;-76
2021/04/01 08:45:16;;;;;;;14.02;2.33;;;17.60;59.90;;;;;;5095767;28;20040;-75
2021/04/01 08:48:10;;;;;;;16.05;3.13;;;17.70;61.50;;;;;;5082733;28;20128;-77
2021/04/01 08:51:03;;;;;;;17.27;2.47;;;17.70;62.20;;;;;;5077362;28;20139;-76
2021/04/01 08:54:04;;;;;;;10.63;1.83;;;17.80;62.20;;;;;;5082609;28;20363;-75
2021/04/01 08:56:40;;;;;;;13.40;2.70;;;17.90;61.90;;;;;;5089220;28;20037;-75
2021/04/01 08:59:24;;;;;;;17.20;2.63;;;18.00;61.50;;;;;;5094588;28;20490;-74
2021/04/01 09:01:52;;;;;;;15.05;2.92;;;18.00;60.70;;;;;;5096448;28;20036;-75
2021/04/01 09:04:24;;;;;;;17.00;3.05;;;18.10;61.00;;;;;;5095827;28;20074;-74
2021/04/01 09:06:55;;;;;;;17.67;2.97;;;18.10;60.00;;;;;;5092509;28;20040;-74
2021/04/01 09:09:31;;;;;;;13.43;2.40;;;18.10;60.30;;;;;;5076069;28;20041;-74
2021/04/01 09:12:12;;;;;;;16.95;3.00;;;18.20;59.60;;;;;;5085368;28;20036;-74
2021/04/01 09:14:45;;;;;;;14.70;2.53;;;18.20;60.60;;;;;;5091240;28;20036;-78
2021/04/01 09:17:12;;;;;;;17.23;2.45;;;18.40;60.50;;;;;;5091578;28;20031;-74
2021/04/01 09:19:42;;;;;;;16.48;2.38;;;18.40;60.40;;;;;;5095451;28;20028;-73
2021/04/01 09:22:18;;;;;;;14.93;3.40;;;18.40;59.80;;;;;;5094588;28;20044;-72
2021/04/01 09:24:44;;;;;;;13.85;2.55;;;18.50;59.80;;;;;;5095297;28;20450;-75
2021/04/01 09:27:13;;;;;;;11.60;2.40;;;18.50;59.80;;;;;;5077478;28;20066;-73
2021/04/01 09:29:44;;;;;;;13.50;2.92;;;18.50;59.70;;;;;;5076609;28;20041;-72
2021/04/01 09:32:13;;;;;;;13.82;2.63;;;18.50;59.80;;;;;;5075552;28;20070;-70
2021/04/01 09:34:41;;;;;;;13.15;2.47;;;18.50;59.80;;;;;;5091555;28;20453;-72
2021/04/01 09:37:13;;;;;;;10.98;2.20;;;18.50;59.80;;;;;;5095905;28;20067;-71
2021/04/01 09:39:43;;;;;;;15.88;2.42;;;18.50;60.00;;;;;;5090398;28;20115;-79
2021/04/01 09:42:12;;;;;;;9.63;1.88;;;18.50;60.20;;;;;;5093882;28;20381;-72
2021/04/01 09:44:51;;;;;;;9.90;2.38;;;18.50;60.20;;;;;;5086135;28;20362;-72
2021/04/01 09:47:24;;;;;;;15.25;2.55;;;18.50;60.40;;;;;;5075237;28;20443;-71
2021/04/01 09:50:03;;;;;;;10.85;2.05;;;18.50;60.40;;;;;;5075883;28;20343;-72
2021/04/01 09:52:30;;;;;;;12.00;2.53;;;18.50;60.60;;;;;;5075456;28;20044;-72
2021/04/01 09:55:04;;;;;;;13.05;2.22;;;18.50;60.80;;;;;;5091288;28;20044;-73
2021/04/01 09:57:41;;;;;;;14.20;2.42;;;18.40;60.80;;;;;;5076325;28;20040;-72
2021/04/01 10:00:48;;;;;;;8.70;2.03;;;18.50;60.80;;;;;;5076146;28;20171;-71
2021/04/01 10:03:11;;;;;;;11.18;2.13;;;18.40;60.80;;;;;;5081210;28;20051;-71
2021/04/01 10:05:39;;;;;;;8.38;1.98;;;18.40;60.90;;;;;;5094524;28;20347;-72
2021/04/01 10:08:09;;;;;;;9.38;2.10;;;18.40;60.90;;;;;;5084471;28;20044;-71
2021/04/01 10:10:38;;;;;;;11.30;1.83;;;18.40;60.70;;;;;;5094515;28;20044;-82
2021/04/01 10:13:15;;;;;;;13.63;2.38;;;18.40;60.70;;;;;;5095370;28;20127;-73
2021/04/01 10:15:41;;;;;;;9.05;1.92;;;18.40;60.40;;;;;;5093059;28;20055;-72
2021/04/01 10:18:08;;;;;;;9.07;1.85;;;18.40;60.30;;;;;;5095117;28;20118;-73
2021/04/01 10:20:35;;;;;;;14.73;1.95;;;18.40;60.20;;;;;;5075368;28;20047;-72
2021/04/01 10:23:08;;;;;;;14.38;2.22;;;18.40;60.20;;;;;;5084211;28;20047;-73
2021/04/01 10:25:56;;;;;;;19.17;2.65;;;18.40;60.40;;;;;;5088764;28;20055;-73
2021/04/01 10:31:11;;;;;;;17.83;2.78;;;18.50;60.70;;;;;;5093299;28;20438;-74
2021/04/01 10:33:44;;;;;;;21.35;2.92;;;18.50;60.40;;;;;;5085164;28;20035;-73
2021/04/01 10:36:13;;;;;;;16.00;2.50;;;18.50;60.50;;;;;;5078714;28;20040;-73
2021/04/01 10:38:40;;;;;;;13.77;2.60;;;18.50;60.60;;;;;;5073692;28;20048;-73
2021/04/01 10:41:18;;;;;;;15.90;2.53;;;18.50;60.60;;;;;;5099091;28;20032;-73
2021/04/01 10:43:45;;;;;;;18.02;3.00;;;18.50;60.50;;;;;;5098810;28;20124;-72
2021/04/01 10:46:19;;;;;;;17.90;2.75;;;18.50;60.50;;;;;;5098862;28;20105;-73
2021/04/01 10:48:54;;;;;;;19.25;2.92;;;18.50;60.40;;;;;;5098854;28;20119;-73
2021/04/01 10:51:24;;;;;;;12.65;2.90;;;18.50;60.20;;;;;;5098849;28;20048;-73
2021/04/01 10:53:51;;;;;;;16.17;2.28;;;18.60;60.30;;;;;;5098824;28;20044;-73
2021/04/01 10:56:18;;;;;;;14.05;2.65;;;18.60;60.00;;;;;;5099475;28;20331;-73
2021/04/01 10:58:54;;;;;;;11.95;2.45;;;18.50;58.10;;;;;;5098750;28;20044;-73
2021/04/01 11:01:40;;;;;;;11.02;2.35;;;18.50;56.50;;;;;;5098232;28;20043;-73
2021/04/01 11:04:08;;;;;;;12.00;2.50;;;18.50;56.00;;;;;;5098600;28;20047;-73
2021/04/01 11:06:37;;;;;;;17.15;2.40;;;18.50;56.50;;;;;;5096300;28;20036;-72
2021/04/01 11:09:05;;;;;;;10.15;2.75;;;18.50;56.40;;;;;;5098308;28;20115;-74
2021/04/01 11:12:20;;;;;;;12.50;2.03;;;18.50;56.50;;;;;;5097947;28;20044;-74
2021/04/01 11:14:27;;;;;;;14.52;2.53;;;18.50;56.50;;;;;;5084562;28;20094;-74
2021/04/01 11:16:53;;;;;;;16.60;3.55;;;18.50;56.60;;;;;;5098104;28;20443;-72
2021/04/01 11:19:20;;;;;;;12.85;2.95;;;18.50;56.40;;;;;;5096630;28;20067;-74
2021/04/01 11:21:48;;;;;;;13.10;2.30;;;18.60;56.50;;;;;;5097285;28;20036;-74
2021/04/01 11:24:26;;;;;;;12.25;2.30;;;18.60;56.70;;;;;;5097504;28;20355;-73
2021/04/01 11:26:52;;;;;;;14.80;2.65;;;18.60;56.60;;;;;;5079372;28;20461;-74
2021/04/01 11:29:20;;;;;;;16.85;2.97;;;18.60;56.60;;;;;;5098534;28;20464;-74
2021/04/01 11:31:46;;;;;;;15.00;2.92;;;18.60;56.70;;;;;;5103748;28;20048;-72
2021/04/01 11:34:14;;;;;;;11.60;2.47;;;18.50;56.80;;;;;;5093797;28;20455;-72
2021/04/01 11:36:41;;;;;;;9.38;1.77;;;18.50;56.90;;;;;;5093154;28;20059;-74
2021/04/01 11:41:53;;;;;;;8.48;2.20;;;18.40;57.30;;;;;;5096641;28;20040;-71
2021/04/01 11:44:20;;;;;;;15.68;2.33;;;18.40;57.40;;;;;;5096528;28;20447;-72
2021/04/01 11:46:45;;;;;;;8.32;2.13;;;18.40;57.40;;;;;;5096912;28;20059;-73
2021/04/01 11:49:12;;;;;;;13.57;2.50;;;18.30;57.40;;;;;;5097099;28;20039;-72
2021/04/01 11:51:37;;;;;;;7.32;1.55;;;18.30;57.50;;;;;;5092273;28;20148;-73
2021/04/01 11:54:05;;;;;;;5.72;1.83;;;18.30;57.70;;;;;;5093874;28;20123;-72
2021/04/01 11:56:42;;;;;;;9.27;2.00;;;18.30;58.00;;;;;;5077464;28;20042;-73
2021/04/01 11:59:15;;;;;;;9.70;2.38;;;18.30;58.70;;;;;;5090986;28;20029;-71
2021/04/01 12:01:52;;;;;;;9.73;2.10;;;18.20;59.20;;;;;;5103214;28;21046;-71
2021/04/01 12:04:21;;;;;;;5.85;1.30;;;18.20;59.60;;;;;;5104642;28;20110;-71
2021/04/01 12:06:48;;;;;;;10.70;2.47;;;18.10;59.60;;;;;;5106232;28;20458;-72
2021/04/01 12:09:15;;;;;;;7.93;2.10;;;18.10;59.80;;;;;;5097428;28;20032;-70
2021/04/01 12:11:43;;;;;;;10.02;2.83;;;18.10;60.20;;;;;;5097563;28;20038;-71
2021/04/01 12:14:11;;;;;;;30.70;10.07;;;18.10;60.00;;;;;;5091277;28;20040;-69
2021/04/01 12:16:37;;;;;;;20.42;5.55;;;18.10;58.90;;;;;;5088116;28;20115;-70
2021/04/01 12:19:03;;;;;;;19.23;5.93;;;18.10;56.50;;;;;;5101319;28;20103;-70
2021/04/01 12:21:30;;;;;;;15.15;5.35;;;18.00;55.40;;;;;;5103953;28;20040;-73
2021/04/01 12:24:02;;;;;;;14.80;4.00;;;18.00;53.90;;;;;;5097874;28;20085;-71
2021/04/01 12:26:41;;;;;;;16.90;4.43;;;17.80;51.70;;;;;;5097359;28;20054;-77
2021/04/01 12:29:06;;;;;;;16.15;3.00;;;17.70;50.60;;;;;;5096744;28;20037;-75
2021/04/01 12:31:39;;;;;;;13.90;2.95;;;17.60;49.90;;;;;;5096628;28;20387;-74
2021/04/01 12:34:10;;;;;;;12.65;2.60;;;17.60;49.60;;;;;;5104410;28;20031;-72
2021/04/01 12:36:39;;;;;;;11.02;2.70;;;17.50;48.90;;;;;;5117379;28;20114;-71
2021/04/01 12:39:08;;;;;;;9.95;2.58;;;17.40;49.30;;;;;;5086651;28;20060;-73
2021/04/01 12:41:39;;;;;;;16.67;3.47;;;17.30;49.10;;;;;;5096307;28;20134;-73
2021/04/01 12:44:06;;;;;;;10.25;3.20;;;17.30;49.10;;;;;;5092018;28;20051;-72
2021/04/01 12:46:47;;;;;;;13.35;3.00;;;17.20;48.80;;;;;;5099572;28;20058;-72
2021/04/01 12:49:16;;;;;;;11.85;2.58;;;17.20;48.70;;;;;;5106171;28;20395;-73
2021/04/01 12:51:53;;;;;;;11.38;2.08;;;17.10;48.20;;;;;;5072649;28;20054;-74
2021/04/01 12:54:29;;;;;;;9.65;2.42;;;17.10;48.10;;;;;;5099928;28;20046;-70
2021/04/01 12:57:02;;;;;;;12.57;2.45;;;17.10;48.30;;;;;;5095458;28;20036;-71
2021/04/01 12:59:41;;;;;;;12.18;2.20;;;17.00;48.70;;;;;;5087594;28;20463;-72
2021/04/01 13:02:12;;;;;;;11.18;2.42;;;17.00;48.80;;;;;;5087596;28;20056;-70
2021/04/01 13:04:41;;;;;;;11.23;2.53;;;17.00;49.00;;;;;;5093456;28;20316;-71
2021/04/01 13:12:15;;;;;;;14.68;2.20;;;17.00;51.30;;;;;;5086167;28;20112;-72
2021/04/01 13:14:41;;;;;;;19.52;3.20;;;17.00;52.80;;;;;;5095656;28;20044;-71
2021/04/01 13:17:08;;;;;;;16.55;3.42;;;17.10;53.60;;;;;;5093953;28;20327;-72
2021/04/01 13:19:34;;;;;;;16.00;2.97;;;17.10;54.60;;;;;;5093335;28;20044;-72
2021/04/01 13:27:13;;;;;;;13.90;2.97;;;17.10;56.60;;;;;;5078516;28;20032;-72
2021/04/01 13:29:42;;;;;;;21.23;3.70;;;17.10;57.10;;;;;;5092594;28;20093;-70
2021/04/01 13:32:17;;;;;;;12.20;2.40;;;17.10;57.00;;;;;;5079588;28;20051;-72
2021/04/01 13:34:52;;;;;;;13.30;2.72;;;17.10;57.10;;;;;;5095133;28;20115;-71
2021/04/01 13:39:59;;;;;;;12.15;2.72;;;17.20;57.60;;;;;;5088805;28;20040;-72
2021/04/01 13:42:28;;;;;;;15.10;2.88;;;17.20;57.40;;;;;;5092346;28;20051;-71
2021/04/01 13:45:07;;;;;;;16.23;1.90;;;17.30;57.40;;;;;;5091375;28;20461;-74
2021/04/01 13:47:36;;;;;;;12.63;2.70;;;17.40;57.70;;;;;;5095759;28;20044;-71
2021/04/01 13:50:02;;;;;;;13.98;1.88;;;17.50;57.70;;;;;;5089303;28;20417;-72
2021/04/01 13:52:44;;;;;;;14.80;2.63;;;17.50;57.90;;;;;;5093488;28;20039;-75
2021/04/01 13:57:56;;;;;;;11.95;2.00;;;17.60;57.60;;;;;;5094577;28;20040;-73
2021/04/01 14:00:28;;;;;;;10.13;1.83;;;17.70;57.70;;;;;;5092547;28;20063;-73
2021/04/01 14:11:19;;;;;;;7.32;1.50;;;17.70;58.00;;;;;;5093106;28;20501;-73
2021/04/01 14:13:46;;;;;;;9.40;1.70;;;17.70;58.00;;;;;;5095484;28;20047;-74
2021/04/01 14:16:14;;;;;;;12.63;1.73;;;17.70;58.30;;;;;;5088567;28;20055;-74
2021/04/01 14:18:43;;;;;;;8.05;2.15;;;17.70;58.30;;;;;;5091298;28;20078;-74
2021/04/01 14:21:09;;;;;;;13.82;2.03;;;17.70;58.40;;;;;;5084674;28;20043;-74
2021/04/01 14:23:36;;;;;;;11.90;1.55;;;17.70;58.40;;;;;;5076594;28;20051;-73
2021/04/01 14:26:19;;;;;;;11.18;1.90;;;17.70;58.40;;;;;;5092698;28;20401;-74
2021/04/01 14:28:46;;;;;;;6.93;1.43;;;17.70;58.50;;;;;;5083195;28;20054;-73
2021/04/01 14:31:14;;;;;;;7.75;1.17;;;17.70;58.70;;;;;;5092940;28;20097;-73
2021/04/01 14:33:42;;;;;;;8.02;1.83;;;17.80;58.70;;;;;;5095231;28;20050;-76
2021/04/01 14:36:11;;;;;;;8.48;1.42;;;17.90;58.70;;;;;;5094562;28;20089;-74
2021/04/01 14:38:38;;;;;;;7.57;1.63;;;18.00;58.70;;;;;;5094656;28;20415;-74
2021/04/01 14:41:11;;;;;;;6.30;1.33;;;18.10;58.60;;;;;;5094900;28;20061;-74
2021/04/01 14:43:46;;;;;;;7.32;1.33;;;18.20;58.60;;;;;;5091155;28;20040;-74
2021/04/01 14:46:13;;;;;;;6.00;1.40;;;18.30;58.60;;;;;;5074843;28;20451;-73
2021/04/01 14:48:39;;;;;;;5.30;1.20;;;18.30;58.50;;;;;;5076990;28;20045;-75
2021/04/01 14:51:05;;;;;;;7.28;1.10;;;18.40;58.60;;;;;;5089503;28;20127;-74
2021/04/01 14:53:41;;;;;;;6.40;0.95;;;18.40;58.10;;;;;;5081647;28;20040;-74